sensor_id;sensor_type;location;lat;lon;timestamp;P1;durP1;ratioP1;P2;durP2;ratioP2
52386;SDS011;38317;53.084;6.960;2023-08-07T00:00:27;5.43;;;2.88;;
52386;SDS011;38317;53.084;6.960;2023-08-07T00:02:53;5.55;;;2.15;;
52386;SDS011;38317;53.084;6.960;2023-08-07T00:05:18;4.95;;;2.47;;
52386;SDS011;38317;53.084;6.960;2023-08-07T00:07:46;4.68;;;2.10;;
52386;SDS011;38317;53.084;6.960;2023-08-07T00:10:12;5.38;;;2.25;;
52386;SDS011;38317;53.084;6.960;2023-08-07T00:12:38;5.55;;;2.25;;
52386;SDS011;38317;53.084;6.960;2023-08-07T00:15:04;4.95;;;2.38;;
52386;SDS011;38317;53.084;6.960;2023-08-07T00:17:30;4.75;;;2.20;;
52386;SDS011;38317;53.084;6.960;2023-08-07T00:19:56;4.05;;;1.90;;
52386;SDS011;38317;53.084;6.960;2023-08-07T00:22:22;3.80;;;1.55;;
52386;SDS011;38317;53.084;6.960;2023-08-07T00:24:48;6.22;;;1.95;;
52386;SDS011;38317;53.084;6.960;2023-08-07T00:27:14;3.10;;;1.73;;
52386;SDS011;38317;53.084;6.960;2023-08-07T00:29:40;3.85;;;1.73;;
52386;SDS011;38317;53.084;6.960;2023-08-07T00:32:06;5.90;;;1.77;;
52386;SDS011;38317;53.084;6.960;2023-08-07T00:34:32;2.75;;;1.70;;
52386;SDS011;38317;53.084;6.960;2023-08-07T00:36:58;3.70;;;1.70;;
52386;SDS011;38317;53.084;6.960;2023-08-07T00:39:23;4.95;;;2.17;;
52386;SDS011;38317;53.084;6.960;2023-08-07T00:41:49;3.80;;;1.40;;
52386;SDS011;38317;53.084;6.960;2023-08-07T00:44:15;6.90;;;1.88;;
52386;SDS011;38317;53.084;6.960;2023-08-07T00:46:41;2.85;;;1.60;;
52386;SDS011;38317;53.084;6.960;2023-08-07T00:49:08;4.28;;;1.40;;
52386;SDS011;38317;53.084;6.960;2023-08-07T00:51:36;3.72;;;1.50;;
52386;SDS011;38317;53.084;6.960;2023-08-07T00:54:03;2.00;;;1.05;;
52386;SDS011;38317;53.084;6.960;2023-08-07T00:56:32;3.60;;;1.38;;
52386;SDS011;38317;53.084;6.960;2023-08-07T00:58:59;4.60;;;1.50;;
52386;SDS011;38317;53.084;6.960;2023-08-07T01:01:25;3.00;;;1.50;;
52386;SDS011;38317;53.084;6.960;2023-08-07T01:03:51;7.88;;;1.50;;
52386;SDS011;38317;53.084;6.960;2023-08-07T01:06:17;4.80;;;1.60;;
52386;SDS011;38317;53.084;6.960;2023-08-07T01:08:43;5.55;;;1.73;;
52386;SDS011;38317;53.084;6.960;2023-08-07T01:16:36;4.32;;;1.70;;
52386;SDS011;38317;53.084;6.960;2023-08-07T01:19:09;3.47;;;1.80;;
52386;SDS011;38317;53.084;6.960;2023-08-07T01:21:48;6.72;;;1.83;;
52386;SDS011;38317;53.084;6.960;2023-08-07T01:24:13;4.97;;;1.88;;
52386;SDS011;38317;53.084;6.960;2023-08-07T01:26:39;4.47;;;1.80;;
52386;SDS011;38317;53.084;6.960;2023-08-07T01:29:19;3.63;;;1.77;;
52386;SDS011;38317;53.084;6.960;2023-08-07T01:31:52;5.15;;;1.67;;
52386;SDS011;38317;53.084;6.960;2023-08-07T01:34:20;3.88;;;1.83;;
52386;SDS011;38317;53.084;6.960;2023-08-07T01:36:49;6.47;;;2.00;;
52386;SDS011;38317;53.084;6.960;2023-08-07T01:39:16;4.75;;;2.28;;
52386;SDS011;38317;53.084;6.960;2023-08-07T01:41:44;7.10;;;2.30;;
52386;SDS011;38317;53.084;6.960;2023-08-07T01:44:12;4.00;;;2.08;;
52386;SDS011;38317;53.084;6.960;2023-08-07T01:46:37;5.57;;;2.15;;
52386;SDS011;38317;53.084;6.960;2023-08-07T01:49:04;3.60;;;2.03;;
52386;SDS011;38317;53.084;6.960;2023-08-07T01:51:30;3.50;;;1.90;;
52386;SDS011;38317;53.084;6.960;2023-08-07T01:53:56;5.93;;;1.90;;
52386;SDS011;38317;53.084;6.960;2023-08-07T01:56:21;6.22;;;1.90;;
52386;SDS011;38317;53.084;6.960;2023-08-07T01:58:47;5.95;;;1.70;;
52386;SDS011;38317;53.084;6.960;2023-08-07T02:01:13;3.88;;;1.50;;
52386;SDS011;38317;53.084;6.960;2023-08-07T02:03:38;4.63;;;1.67;;
52386;SDS011;38317;53.084;6.960;2023-08-07T02:06:04;4.78;;;1.80;;
52386;SDS011;38317;53.084;6.960;2023-08-07T02:08:30;6.38;;;1.65;;
52386;SDS011;38317;53.084;6.960;2023-08-07T02:10:55;4.75;;;2.00;;
52386;SDS011;38317;53.084;6.960;2023-08-07T02:13:21;7.07;;;2.20;;
52386;SDS011;38317;53.084;6.960;2023-08-07T02:15:47;4.88;;;1.70;;
52386;SDS011;38317;53.084;6.960;2023-08-07T02:18:12;4.07;;;1.95;;
52386;SDS011;38317;53.084;6.960;2023-08-07T02:20:38;4.35;;;1.73;;
52386;SDS011;38317;53.084;6.960;2023-08-07T02:23:04;5.05;;;1.90;;
52386;SDS011;38317;53.084;6.960;2023-08-07T02:25:30;3.38;;;1.70;;
52386;SDS011;38317;53.084;6.960;2023-08-07T02:27:55;3.40;;;1.60;;
52386;SDS011;38317;53.084;6.960;2023-08-07T02:30:21;5.35;;;1.70;;
52386;SDS011;38317;53.084;6.960;2023-08-07T02:32:47;4.10;;;1.50;;
52386;SDS011;38317;53.084;6.960;2023-08-07T02:35:12;4.03;;;1.60;;
52386;SDS011;38317;53.084;6.960;2023-08-07T02:37:38;3.78;;;1.75;;
52386;SDS011;38317;53.084;6.960;2023-08-07T02:40:04;4.85;;;1.50;;
52386;SDS011;38317;53.084;6.960;2023-08-07T02:42:30;4.28;;;1.40;;
52386;SDS011;38317;53.084;6.960;2023-08-07T02:44:56;3.50;;;1.50;;
52386;SDS011;38317;53.084;6.960;2023-08-07T02:47:21;4.78;;;1.85;;
52386;SDS011;38317;53.084;6.960;2023-08-07T02:49:47;8.38;;;1.88;;
52386;SDS011;38317;53.084;6.960;2023-08-07T02:52:13;4.78;;;1.80;;
52386;SDS011;38317;53.084;6.960;2023-08-07T02:54:38;3.85;;;1.35;;
52386;SDS011;38317;53.084;6.960;2023-08-07T02:57:04;6.85;;;1.63;;
52386;SDS011;38317;53.084;6.960;2023-08-07T02:59:30;3.65;;;1.38;;
52386;SDS011;38317;53.084;6.960;2023-08-07T03:01:55;5.97;;;1.67;;
52386;SDS011;38317;53.084;6.960;2023-08-07T03:04:21;5.28;;;1.65;;
52386;SDS011;38317;53.084;6.960;2023-08-07T03:06:47;6.18;;;1.60;;
52386;SDS011;38317;53.084;6.960;2023-08-07T03:09:13;9.68;;;1.83;;
52386;SDS011;38317;53.084;6.960;2023-08-07T03:11:38;6.45;;;2.03;;
52386;SDS011;38317;53.084;6.960;2023-08-07T03:14:04;4.40;;;1.20;;
52386;SDS011;38317;53.084;6.960;2023-08-07T03:16:30;6.65;;;1.40;;
52386;SDS011;38317;53.084;6.960;2023-08-07T03:18:55;5.65;;;1.50;;
52386;SDS011;38317;53.084;6.960;2023-08-07T03:21:22;5.57;;;1.65;;
52386;SDS011;38317;53.084;6.960;2023-08-07T03:23:48;9.65;;;1.83;;
52386;SDS011;38317;53.084;6.960;2023-08-07T03:26:13;8.32;;;1.55;;
52386;SDS011;38317;53.084;6.960;2023-08-07T03:28:39;5.70;;;1.45;;
52386;SDS011;38317;53.084;6.960;2023-08-07T03:31:05;8.07;;;1.50;;
52386;SDS011;38317;53.084;6.960;2023-08-07T03:33:31;7.78;;;1.88;;
52386;SDS011;38317;53.084;6.960;2023-08-07T03:35:57;7.13;;;1.50;;
52386;SDS011;38317;53.084;6.960;2023-08-07T03:38:22;6.15;;;1.27;;
52386;SDS011;38317;53.084;6.960;2023-08-07T03:40:49;7.28;;;1.70;;
52386;SDS011;38317;53.084;6.960;2023-08-07T03:43:15;10.85;;;2.42;;
52386;SDS011;38317;53.084;6.960;2023-08-07T03:45:40;6.97;;;1.40;;
52386;SDS011;38317;53.084;6.960;2023-08-07T03:48:06;5.88;;;1.48;;
52386;SDS011;38317;53.084;6.960;2023-08-07T03:50:32;5.97;;;1.48;;
52386;SDS011;38317;53.084;6.960;2023-08-07T03:53:00;5.15;;;1.38;;
52386;SDS011;38317;53.084;6.960;2023-08-07T03:55:26;7.28;;;1.40;;
52386;SDS011;38317;53.084;6.960;2023-08-07T03:57:52;10.13;;;1.77;;
52386;SDS011;38317;53.084;6.960;2023-08-07T04:00:18;5.85;;;1.55;;
52386;SDS011;38317;53.084;6.960;2023-08-07T04:02:44;5.72;;;1.50;;
52386;SDS011;38317;53.084;6.960;2023-08-07T04:05:10;7.72;;;1.40;;
52386;SDS011;38317;53.084;6.960;2023-08-07T04:07:36;5.55;;;1.30;;
52386;SDS011;38317;53.084;6.960;2023-08-07T04:10:01;5.78;;;1.60;;
52386;SDS011;38317;53.084;6.960;2023-08-07T04:12:27;4.80;;;1.45;;
52386;SDS011;38317;53.084;6.960;2023-08-07T04:14:53;7.80;;;2.10;;
52386;SDS011;38317;53.084;6.960;2023-08-07T04:17:19;8.57;;;2.08;;
52386;SDS011;38317;53.084;6.960;2023-08-07T04:19:44;7.38;;;1.50;;
52386;SDS011;38317;53.084;6.960;2023-08-07T04:22:10;6.28;;;1.40;;
52386;SDS011;38317;53.084;6.960;2023-08-07T04:24:36;7.00;;;1.42;;
52386;SDS011;38317;53.084;6.960;2023-08-07T04:27:01;7.15;;;1.30;;
52386;SDS011;38317;53.084;6.960;2023-08-07T04:29:27;6.63;;;1.60;;
52386;SDS011;38317;53.084;6.960;2023-08-07T04:31:53;6.75;;;1.40;;
52386;SDS011;38317;53.084;6.960;2023-08-07T04:34:19;6.45;;;1.30;;
52386;SDS011;38317;53.084;6.960;2023-08-07T04:36:45;6.82;;;1.40;;
52386;SDS011;38317;53.084;6.960;2023-08-07T04:39:10;7.75;;;1.70;;
52386;SDS011;38317;53.084;6.960;2023-08-07T04:41:38;4.72;;;1.33;;
52386;SDS011;38317;53.084;6.960;2023-08-07T04:44:04;5.07;;;1.20;;
52386;SDS011;38317;53.084;6.960;2023-08-07T04:46:30;3.72;;;1.20;;
52386;SDS011;38317;53.084;6.960;2023-08-07T04:48:56;5.22;;;1.52;;
52386;SDS011;38317;53.084;6.960;2023-08-07T04:51:21;6.95;;;1.45;;
52386;SDS011;38317;53.084;6.960;2023-08-07T04:53:47;7.90;;;1.65;;
52386;SDS011;38317;53.084;6.960;2023-08-07T04:56:16;7.68;;;1.73;;
52386;SDS011;38317;53.084;6.960;2023-08-07T04:58:42;10.65;;;2.13;;
52386;SDS011;38317;53.084;6.960;2023-08-07T05:01:08;8.55;;;1.70;;
52386;SDS011;38317;53.084;6.960;2023-08-07T05:03:34;8.50;;;1.70;;
52386;SDS011;38317;53.084;6.960;2023-08-07T05:06:00;8.32;;;1.70;;
52386;SDS011;38317;53.084;6.960;2023-08-07T05:08:26;9.75;;;1.80;;
52386;SDS011;38317;53.084;6.960;2023-08-07T05:10:52;8.10;;;1.52;;
52386;SDS011;38317;53.084;6.960;2023-08-07T05:13:18;8.55;;;1.73;;
52386;SDS011;38317;53.084;6.960;2023-08-07T05:15:46;5.38;;;1.50;;
52386;SDS011;38317;53.084;6.960;2023-08-07T05:18:12;8.23;;;1.75;;
52386;SDS011;38317;53.084;6.960;2023-08-07T05:20:38;11.18;;;2.38;;
52386;SDS011;38317;53.084;6.960;2023-08-07T05:23:03;9.40;;;1.80;;
52386;SDS011;38317;53.084;6.960;2023-08-07T05:25:30;8.05;;;2.10;;
52386;SDS011;38317;53.084;6.960;2023-08-07T05:27:56;8.30;;;1.67;;
52386;SDS011;38317;53.084;6.960;2023-08-07T05:30:21;7.65;;;1.52;;
52386;SDS011;38317;53.084;6.960;2023-08-07T05:32:47;7.65;;;1.83;;
52386;SDS011;38317;53.084;6.960;2023-08-07T05:35:13;10.98;;;2.75;;
52386;SDS011;38317;53.084;6.960;2023-08-07T05:37:38;8.93;;;1.80;;
52386;SDS011;38317;53.084;6.960;2023-08-07T05:40:04;10.38;;;2.10;;
52386;SDS011;38317;53.084;6.960;2023-08-07T05:42:31;7.88;;;2.00;;
52386;SDS011;38317;53.084;6.960;2023-08-07T05:44:57;11.57;;;1.98;;
52386;SDS011;38317;53.084;6.960;2023-08-07T05:47:23;8.60;;;2.00;;
52386;SDS011;38317;53.084;6.960;2023-08-07T05:49:49;14.15;;;2.42;;
52386;SDS011;38317;53.084;6.960;2023-08-07T05:52:15;8.65;;;2.28;;
52386;SDS011;38317;53.084;6.960;2023-08-07T05:54:42;10.68;;;2.00;;
52386;SDS011;38317;53.084;6.960;2023-08-07T05:57:07;8.80;;;2.30;;
52386;SDS011;38317;53.084;6.960;2023-08-07T05:59:33;8.40;;;2.40;;
52386;SDS011;38317;53.084;6.960;2023-08-07T06:01:59;9.18;;;2.30;;
52386;SDS011;38317;53.084;6.960;2023-08-07T06:04:25;5.80;;;1.65;;
52386;SDS011;38317;53.084;6.960;2023-08-07T06:06:51;8.77;;;2.50;;
52386;SDS011;38317;53.084;6.960;2023-08-07T06:09:17;11.80;;;2.50;;
52386;SDS011;38317;53.084;6.960;2023-08-07T06:11:42;9.20;;;2.20;;
52386;SDS011;38317;53.084;6.960;2023-08-07T06:14:08;10.00;;;2.20;;
52386;SDS011;38317;53.084;6.960;2023-08-07T06:16:34;13.30;;;2.15;;
52386;SDS011;38317;53.084;6.960;2023-08-07T06:19:00;10.23;;;2.42;;
52386;SDS011;38317;53.084;6.960;2023-08-07T06:21:26;14.18;;;2.97;;
52386;SDS011;38317;53.084;6.960;2023-08-07T06:23:53;13.07;;;2.60;;
52386;SDS011;38317;53.084;6.960;2023-08-07T06:26:19;12.30;;;2.53;;
52386;SDS011;38317;53.084;6.960;2023-08-07T06:28:45;12.63;;;2.83;;
52386;SDS011;38317;53.084;6.960;2023-08-07T06:31:11;12.60;;;2.78;;
52386;SDS011;38317;53.084;6.960;2023-08-07T06:33:37;9.07;;;2.47;;
52386;SDS011;38317;53.084;6.960;2023-08-07T06:36:03;9.25;;;2.40;;
52386;SDS011;38317;53.084;6.960;2023-08-07T06:38:30;8.25;;;1.83;;
52386;SDS011;38317;53.084;6.960;2023-08-07T06:40:56;12.23;;;2.20;;
52386;SDS011;38317;53.084;6.960;2023-08-07T06:43:22;4.90;;;1.25;;
52386;SDS011;38317;53.084;6.960;2023-08-07T06:45:51;4.88;;;1.42;;
52386;SDS011;38317;53.084;6.960;2023-08-07T06:48:19;10.05;;;2.33;;
52386;SDS011;38317;53.084;6.960;2023-08-07T06:50:48;8.88;;;1.90;;
52386;SDS011;38317;53.084;6.960;2023-08-07T06:53:14;7.30;;;1.60;;
52386;SDS011;38317;53.084;6.960;2023-08-07T06:55:40;10.30;;;1.70;;
52386;SDS011;38317;53.084;6.960;2023-08-07T06:58:06;9.00;;;1.63;;
52386;SDS011;38317;53.084;6.960;2023-08-07T07:00:33;11.77;;;2.28;;
52386;SDS011;38317;53.084;6.960;2023-08-07T07:03:00;9.40;;;1.73;;
52386;SDS011;38317;53.084;6.960;2023-08-07T07:05:26;7.85;;;1.67;;
52386;SDS011;38317;53.084;6.960;2023-08-07T07:07:52;8.93;;;2.08;;
52386;SDS011;38317;53.084;6.960;2023-08-07T07:10:19;9.27;;;1.88;;
52386;SDS011;38317;53.084;6.960;2023-08-07T07:12:45;9.77;;;2.05;;
52386;SDS011;38317;53.084;6.960;2023-08-07T07:15:11;8.57;;;1.92;;
52386;SDS011;38317;53.084;6.960;2023-08-07T07:17:37;9.57;;;1.75;;
52386;SDS011;38317;53.084;6.960;2023-08-07T07:20:03;8.93;;;1.63;;
52386;SDS011;38317;53.084;6.960;2023-08-07T07:22:29;9.68;;;2.28;;
52386;SDS011;38317;53.084;6.960;2023-08-07T07:24:55;8.93;;;2.00;;
52386;SDS011;38317;53.084;6.960;2023-08-07T07:27:20;7.93;;;1.73;;
52386;SDS011;38317;53.084;6.960;2023-08-07T07:29:47;9.93;;;2.22;;
52386;SDS011;38317;53.084;6.960;2023-08-07T07:32:14;10.35;;;2.33;;
52386;SDS011;38317;53.084;6.960;2023-08-07T07:34:39;9.48;;;1.92;;
52386;SDS011;38317;53.084;6.960;2023-08-07T07:37:05;11.07;;;2.35;;
52386;SDS011;38317;53.084;6.960;2023-08-07T07:39:31;11.23;;;2.13;;
52386;SDS011;38317;53.084;6.960;2023-08-07T07:41:57;9.48;;;2.03;;
52386;SDS011;38317;53.084;6.960;2023-08-07T07:44:22;8.65;;;2.50;;
52386;SDS011;38317;53.084;6.960;2023-08-07T07:46:48;9.00;;;1.80;;
52386;SDS011;38317;53.084;6.960;2023-08-07T07:49:14;11.48;;;2.17;;
52386;SDS011;38317;53.084;6.960;2023-08-07T07:51:40;7.75;;;1.75;;
52386;SDS011;38317;53.084;6.960;2023-08-07T07:54:05;9.70;;;2.10;;
52386;SDS011;38317;53.084;6.960;2023-08-07T07:56:31;9.85;;;2.10;;
52386;SDS011;38317;53.084;6.960;2023-08-07T07:58:57;10.65;;;2.30;;
52386;SDS011;38317;53.084;6.960;2023-08-07T08:01:23;5.63;;;1.88;;
52386;SDS011;38317;53.084;6.960;2023-08-07T08:03:49;7.75;;;1.50;;
52386;SDS011;38317;53.084;6.960;2023-08-07T08:06:14;7.93;;;1.67;;
52386;SDS011;38317;53.084;6.960;2023-08-07T08:08:40;9.68;;;2.00;;
52386;SDS011;38317;53.084;6.960;2023-08-07T08:11:07;8.73;;;1.90;;
52386;SDS011;38317;53.084;6.960;2023-08-07T08:13:33;10.70;;;1.65;;
52386;SDS011;38317;53.084;6.960;2023-08-07T08:16:03;8.55;;;1.67;;
52386;SDS011;38317;53.084;6.960;2023-08-07T08:18:29;8.90;;;1.90;;
52386;SDS011;38317;53.084;6.960;2023-08-07T08:20:55;7.13;;;1.92;;
52386;SDS011;38317;53.084;6.960;2023-08-07T08:23:21;5.45;;;1.40;;
52386;SDS011;38317;53.084;6.960;2023-08-07T08:25:47;8.18;;;1.42;;
52386;SDS011;38317;53.084;6.960;2023-08-07T08:28:13;6.85;;;1.55;;
52386;SDS011;38317;53.084;6.960;2023-08-07T08:30:39;9.48;;;1.80;;
52386;SDS011;38317;53.084;6.960;2023-08-07T08:33:10;6.93;;;1.85;;
52386;SDS011;38317;53.084;6.960;2023-08-07T08:35:39;6.20;;;1.80;;
52386;SDS011;38317;53.084;6.960;2023-08-07T08:38:06;8.60;;;2.10;;
52386;SDS011;38317;53.084;6.960;2023-08-07T08:40:33;5.25;;;1.50;;
52386;SDS011;38317;53.084;6.960;2023-08-07T08:43:02;6.72;;;1.60;;
52386;SDS011;38317;53.084;6.960;2023-08-07T08:45:30;5.85;;;1.90;;
52386;SDS011;38317;53.084;6.960;2023-08-07T08:48:02;8.43;;;1.70;;
52386;SDS011;38317;53.084;6.960;2023-08-07T08:50:29;7.95;;;1.70;;
52386;SDS011;38317;53.084;6.960;2023-08-07T08:52:56;6.07;;;2.10;;
52386;SDS011;38317;53.084;6.960;2023-08-07T08:55:22;7.93;;;1.80;;
52386;SDS011;38317;53.084;6.960;2023-08-07T08:57:48;6.47;;;1.90;;
52386;SDS011;38317;53.084;6.960;2023-08-07T09:00:18;6.55;;;1.60;;
52386;SDS011;38317;53.084;6.960;2023-08-07T09:02:48;8.65;;;2.17;;
52386;SDS011;38317;53.084;6.960;2023-08-07T09:05:15;5.78;;;1.80;;
52386;SDS011;38317;53.084;6.960;2023-08-07T09:07:42;9.18;;;1.83;;
52386;SDS011;38317;53.084;6.960;2023-08-07T09:10:09;7.60;;;1.70;;
52386;SDS011;38317;53.084;6.960;2023-08-07T09:12:37;13.93;;;1.95;;
52386;SDS011;38317;53.084;6.960;2023-08-07T09:15:10;6.72;;;1.75;;
52386;SDS011;38317;53.084;6.960;2023-08-07T09:17:41;9.88;;;2.15;;
52386;SDS011;38317;53.084;6.960;2023-08-07T09:20:09;11.73;;;1.83;;
52386;SDS011;38317;53.084;6.960;2023-08-07T09:22:40;8.10;;;1.70;;
52386;SDS011;38317;53.084;6.960;2023-08-07T09:25:07;6.68;;;1.50;;
52386;SDS011;38317;53.084;6.960;2023-08-07T09:27:35;9.35;;;2.17;;
52386;SDS011;38317;53.084;6.960;2023-08-07T09:30:05;7.10;;;1.67;;
52386;SDS011;38317;53.084;6.960;2023-08-07T09:32:34;7.65;;;1.55;;
52386;SDS011;38317;53.084;6.960;2023-08-07T09:35:01;9.00;;;1.38;;
52386;SDS011;38317;53.084;6.960;2023-08-07T09:37:31;5.05;;;1.23;;
52386;SDS011;38317;53.084;6.960;2023-08-07T09:39:59;5.40;;;1.35;;
52386;SDS011;38317;53.084;6.960;2023-08-07T09:42:26;6.28;;;1.63;;
52386;SDS011;38317;53.084;6.960;2023-08-07T09:44:57;6.55;;;1.60;;
52386;SDS011;38317;53.084;6.960;2023-08-07T09:47:24;4.93;;;1.10;;
52386;SDS011;38317;53.084;6.960;2023-08-07T09:49:50;5.55;;;1.35;;
52386;SDS011;38317;53.084;6.960;2023-08-07T09:52:20;10.00;;;1.45;;
52386;SDS011;38317;53.084;6.960;2023-08-07T09:54:45;3.92;;;1.00;;
52386;SDS011;38317;53.084;6.960;2023-08-07T09:57:11;7.85;;;1.67;;
52386;SDS011;38317;53.084;6.960;2023-08-07T09:59:38;8.57;;;1.30;;
52386;SDS011;38317;53.084;6.960;2023-08-07T10:02:05;7.90;;;1.52;;
52386;SDS011;38317;53.084;6.960;2023-08-07T10:04:31;6.95;;;1.63;;
52386;SDS011;38317;53.084;6.960;2023-08-07T10:06:57;6.78;;;1.42;;
52386;SDS011;38317;53.084;6.960;2023-08-07T10:09:24;9.80;;;1.08;;
52386;SDS011;38317;53.084;6.960;2023-08-07T10:11:52;6.72;;;1.20;;
52386;SDS011;38317;53.084;6.960;2023-08-07T10:14:19;6.88;;;1.17;;
52386;SDS011;38317;53.084;6.960;2023-08-07T10:16:46;7.95;;;1.70;;
52386;SDS011;38317;53.084;6.960;2023-08-07T10:19:14;7.85;;;1.20;;
52386;SDS011;38317;53.084;6.960;2023-08-07T10:21:40;6.13;;;1.45;;
52386;SDS011;38317;53.084;6.960;2023-08-07T10:24:07;12.48;;;1.88;;
52386;SDS011;38317;53.084;6.960;2023-08-07T10:26:34;4.10;;;1.00;;
52386;SDS011;38317;53.084;6.960;2023-08-07T10:29:02;6.47;;;1.33;;
52386;SDS011;38317;53.084;6.960;2023-08-07T10:31:30;8.05;;;1.58;;
52386;SDS011;38317;53.084;6.960;2023-08-07T10:33:58;5.57;;;1.15;;
52386;SDS011;38317;53.084;6.960;2023-08-07T10:36:24;7.45;;;1.50;;
52386;SDS011;38317;53.084;6.960;2023-08-07T10:39:07;5.25;;;1.13;;
52386;SDS011;38317;53.084;6.960;2023-08-07T10:41:39;8.45;;;1.38;;
52386;SDS011;38317;53.084;6.960;2023-08-07T10:44:20;8.20;;;1.48;;
52386;SDS011;38317;53.084;6.960;2023-08-07T10:46:47;9.60;;;1.75;;
52386;SDS011;38317;53.084;6.960;2023-08-07T10:51:58;8.95;;;1.60;;
52386;SDS011;38317;53.084;6.960;2023-08-07T10:54:24;5.90;;;1.23;;
52386;SDS011;38317;53.084;6.960;2023-08-07T10:56:54;7.35;;;1.88;;
52386;SDS011;38317;53.084;6.960;2023-08-07T10:59:20;6.28;;;1.17;;
52386;SDS011;38317;53.084;6.960;2023-08-07T11:01:55;7.85;;;1.50;;
52386;SDS011;38317;53.084;6.960;2023-08-07T11:04:21;5.97;;;1.33;;
52386;SDS011;38317;53.084;6.960;2023-08-07T11:06:50;8.68;;;1.75;;
52386;SDS011;38317;53.084;6.960;2023-08-07T11:09:16;6.20;;;1.40;;
52386;SDS011;38317;53.084;6.960;2023-08-07T11:11:45;6.15;;;1.40;;
52386;SDS011;38317;53.084;6.960;2023-08-07T11:14:14;9.00;;;1.73;;
52386;SDS011;38317;53.084;6.960;2023-08-07T11:16:41;6.75;;;1.23;;
52386;SDS011;38317;53.084;6.960;2023-08-07T11:19:08;6.22;;;1.30;;
52386;SDS011;38317;53.084;6.960;2023-08-07T11:21:34;7.55;;;1.20;;
52386;SDS011;38317;53.084;6.960;2023-08-07T11:24:01;7.65;;;1.55;;
52386;SDS011;38317;53.084;6.960;2023-08-07T11:26:27;7.05;;;1.15;;
52386;SDS011;38317;53.084;6.960;2023-08-07T11:28:53;6.85;;;1.17;;
52386;SDS011;38317;53.084;6.960;2023-08-07T11:31:20;7.63;;;1.58;;
52386;SDS011;38317;53.084;6.960;2023-08-07T11:33:47;3.85;;;0.70;;
52386;SDS011;38317;53.084;6.960;2023-08-07T11:36:16;4.43;;;0.98;;
52386;SDS011;38317;53.084;6.960;2023-08-07T11:38:42;5.13;;;1.00;;
52386;SDS011;38317;53.084;6.960;2023-08-07T11:41:09;3.38;;;0.68;;
52386;SDS011;38317;53.084;6.960;2023-08-07T11:43:39;4.70;;;1.20;;
52386;SDS011;38317;53.084;6.960;2023-08-07T11:46:07;5.93;;;1.20;;
52386;SDS011;38317;53.084;6.960;2023-08-07T11:48:35;6.78;;;0.90;;
52386;SDS011;38317;53.084;6.960;2023-08-07T11:51:03;5.22;;;0.90;;
52386;SDS011;38317;53.084;6.960;2023-08-07T11:53:34;10.52;;;1.92;;
52386;SDS011;38317;53.084;6.960;2023-08-07T11:56:01;4.65;;;1.20;;
52386;SDS011;38317;53.084;6.960;2023-08-07T11:58:43;5.15;;;1.42;;
52386;SDS011;38317;53.084;6.960;2023-08-07T12:01:13;6.47;;;1.30;;
52386;SDS011;38317;53.084;6.960;2023-08-07T12:03:51;4.97;;;1.05;;
52386;SDS011;38317;53.084;6.960;2023-08-07T12:06:17;5.05;;;0.93;;
52386;SDS011;38317;53.084;6.960;2023-08-07T12:08:43;3.53;;;0.80;;
52386;SDS011;38317;53.084;6.960;2023-08-07T12:11:12;4.53;;;0.98;;
52386;SDS011;38317;53.084;6.960;2023-08-07T12:13:39;3.60;;;0.95;;
52386;SDS011;38317;53.084;6.960;2023-08-07T12:16:10;2.58;;;0.93;;
52386;SDS011;38317;53.084;6.960;2023-08-07T12:18:42;3.90;;;0.70;;
52386;SDS011;38317;53.084;6.960;2023-08-07T12:21:16;4.75;;;0.55;;
52386;SDS011;38317;53.084;6.960;2023-08-07T12:23:44;2.75;;;0.50;;
52386;SDS011;38317;53.084;6.960;2023-08-07T12:26:12;3.47;;;0.80;;
52386;SDS011;38317;53.084;6.960;2023-08-07T12:28:38;3.72;;;0.70;;
52386;SDS011;38317;53.084;6.960;2023-08-07T12:31:04;3.60;;;1.00;;
52386;SDS011;38317;53.084;6.960;2023-08-07T12:33:31;5.15;;;1.08;;
52386;SDS011;38317;53.084;6.960;2023-08-07T12:35:58;6.38;;;1.00;;
52386;SDS011;38317;53.084;6.960;2023-08-07T12:38:24;5.35;;;0.90;;
52386;SDS011;38317;53.084;6.960;2023-08-07T12:40:50;3.50;;;0.70;;
52386;SDS011;38317;53.084;6.960;2023-08-07T12:43:16;6.18;;;0.70;;
52386;SDS011;38317;53.084;6.960;2023-08-07T12:45:42;2.80;;;0.90;;
52386;SDS011;38317;53.084;6.960;2023-08-07T12:48:08;5.45;;;0.90;;
52386;SDS011;38317;53.084;6.960;2023-08-07T12:50:33;3.05;;;0.80;;
52386;SDS011;38317;53.084;6.960;2023-08-07T12:52:59;5.47;;;0.88;;
52386;SDS011;38317;53.084;6.960;2023-08-07T12:55:26;3.47;;;0.82;;
52386;SDS011;38317;53.084;6.960;2023-08-07T12:57:53;4.13;;;1.13;;
52386;SDS011;38317;53.084;6.960;2023-08-07T13:00:19;3.95;;;0.75;;
52386;SDS011;38317;53.084;6.960;2023-08-07T13:02:46;2.95;;;0.80;;
52386;SDS011;38317;53.084;6.960;2023-08-07T13:05:13;3.45;;;0.90;;
52386;SDS011;38317;53.084;6.960;2023-08-07T13:07:40;3.28;;;0.90;;
52386;SDS011;38317;53.084;6.960;2023-08-07T13:10:06;2.40;;;1.00;;
52386;SDS011;38317;53.084;6.960;2023-08-07T13:12:38;3.42;;;0.82;;
52386;SDS011;38317;53.084;6.960;2023-08-07T13:15:05;3.35;;;0.80;;
52386;SDS011;38317;53.084;6.960;2023-08-07T13:17:33;3.95;;;1.30;;
52386;SDS011;38317;53.084;6.960;2023-08-07T13:20:03;2.42;;;0.88;;
52386;SDS011;38317;53.084;6.960;2023-08-07T13:22:37;4.85;;;1.17;;
52386;SDS011;38317;53.084;6.960;2023-08-07T13:25:05;5.85;;;1.10;;
52386;SDS011;38317;53.084;6.960;2023-08-07T13:27:32;6.90;;;1.27;;
52386;SDS011;38317;53.084;6.960;2023-08-07T13:30:00;3.15;;;0.95;;
52386;SDS011;38317;53.084;6.960;2023-08-07T13:32:26;5.07;;;1.40;;
52386;SDS011;38317;53.084;6.960;2023-08-07T13:34:52;6.18;;;1.25;;
52386;SDS011;38317;53.084;6.960;2023-08-07T13:37:18;6.78;;;1.20;;
52386;SDS011;38317;53.084;6.960;2023-08-07T13:39:44;5.93;;;1.48;;
52386;SDS011;38317;53.084;6.960;2023-08-07T13:42:09;4.22;;;1.10;;
52386;SDS011;38317;53.084;6.960;2023-08-07T13:44:36;4.93;;;1.50;;
52386;SDS011;38317;53.084;6.960;2023-08-07T13:47:02;4.88;;;1.20;;
52386;SDS011;38317;53.084;6.960;2023-08-07T13:49:29;4.28;;;1.10;;
52386;SDS011;38317;53.084;6.960;2023-08-07T13:51:55;6.97;;;1.30;;
52386;SDS011;38317;53.084;6.960;2023-08-07T13:54:21;6.10;;;1.33;;
52386;SDS011;38317;53.084;6.960;2023-08-07T13:56:47;8.93;;;1.52;;
52386;SDS011;38317;53.084;6.960;2023-08-07T13:59:14;3.72;;;1.10;;
52386;SDS011;38317;53.084;6.960;2023-08-07T14:01:40;7.15;;;1.15;;
52386;SDS011;38317;53.084;6.960;2023-08-07T14:04:06;7.32;;;1.27;;
52386;SDS011;38317;53.084;6.960;2023-08-07T14:06:32;5.07;;;1.20;;
52386;SDS011;38317;53.084;6.960;2023-08-07T14:08:58;5.13;;;1.30;;
52386;SDS011;38317;53.084;6.960;2023-08-07T14:11:23;7.72;;;1.33;;
52386;SDS011;38317;53.084;6.960;2023-08-07T14:13:58;5.03;;;1.50;;
52386;SDS011;38317;53.084;6.960;2023-08-07T14:16:27;4.65;;;1.60;;
52386;SDS011;38317;53.084;6.960;2023-08-07T14:18:53;7.03;;;1.92;;
52386;SDS011;38317;53.084;6.960;2023-08-07T14:21:18;6.43;;;1.63;;
52386;SDS011;38317;53.084;6.960;2023-08-07T14:23:45;8.18;;;2.28;;
52386;SDS011;38317;53.084;6.960;2023-08-07T14:26:13;6.63;;;1.42;;
52386;SDS011;38317;53.084;6.960;2023-08-07T14:28:39;5.43;;;1.60;;
52386;SDS011;38317;53.084;6.960;2023-08-07T14:31:06;8.02;;;1.65;;
52386;SDS011;38317;53.084;6.960;2023-08-07T14:33:33;4.57;;;1.15;;
52386;SDS011;38317;53.084;6.960;2023-08-07T14:35:59;7.50;;;1.40;;
52386;SDS011;38317;53.084;6.960;2023-08-07T14:38:25;6.05;;;1.33;;
52386;SDS011;38317;53.084;6.960;2023-08-07T14:40:51;9.45;;;1.90;;
52386;SDS011;38317;53.084;6.960;2023-08-07T14:43:17;9.40;;;1.75;;
52386;SDS011;38317;53.084;6.960;2023-08-07T14:45:43;6.60;;;1.88;;
52386;SDS011;38317;53.084;6.960;2023-08-07T14:48:08;4.32;;;1.30;;
52386;SDS011;38317;53.084;6.960;2023-08-07T14:50:34;4.50;;;1.17;;